Wetterdaten: aktuell Dienstag, 28.11.2023 20:30
Datum Zeit Temp. 2m Feuchte 2m Luftdruck Regen Wind Richtung Richtung Taupunkt Windchill Windben
28.11.2023 20:30 1,2 C 80 % 1009,0 hPa 0,0 l/m 0,7 km/h N-NW 337 -1,9 C 1,2 C 2,2 km/h
28.11.2023 20:25 1,2 C 80 % 1009,0 hPa 0,0 l/m 0,0 km/h N-NW 337 -1,9 C 1,2 C 2,2 km/h
28.11.2023 20:20 1,2 C 80 % 1009,0 hPa 0,0 l/m 0,0 km/h N-NW 337 -1,9 C 1,2 C 2,2 km/h
28.11.2023 20:15 1,2 C 80 % 1009,0 hPa 0,0 l/m 1,8 km/h N-NW 337 -1,9 C 1,2 C 4,3 km/h
28.11.2023 20:10 1,2 C 80 % 1009,0 hPa 0,0 l/m 2,2 km/h N-NW 337 -1,9 C 1,2 C 4,3 km/h
28.11.2023 20:05 1,2 C 80 % 1009,0 hPa 0,0 l/m 1,1 km/h N-NW 337 -1,9 C 1,2 C 4,3 km/h
28.11.2023 20:00 1,2 C 80 % 1009,0 hPa 0,0 l/m 2,2 km/h N-NW 337 -1,9 C 1,2 C 4,3 km/h
28.11.2023 19:55 1,2 C 79 % 1009,0 hPa 0,0 l/m 1,8 km/h N-NW 337 -2,0 C 1,2 C 6,5 km/h
28.11.2023 19:50 1,2 C 79 % 1009,0 hPa 0,0 l/m 2,9 km/h N-NW 337 -2,0 C 1,2 C 6,5 km/h
28.11.2023 19:45 1,3 C 79 % 1009,0 hPa 0,0 l/m 4,0 km/h N-NW 337 -1,9 C 1,3 C 4,3 km/h
28.11.2023 19:40 1,3 C 79 % 1009,0 hPa 0,0 l/m 1,1 km/h N-NW 337 -1,9 C 1,3 C 2,2 km/h
28.11.2023 19:35 1,3 C 79 % 1009,0 hPa 0,0 l/m 4,0 km/h N-NW 337 -1,9 C 1,3 C 6,5 km/h
28.11.2023 19:30 1,3 C 79 % 1009,0 hPa 0,0 l/m 2,2 km/h N-NW 337 -1,9 C 1,3 C 4,3 km/h
28.11.2023 19:25 1,3 C 78 % 1009,0 hPa 0,0 l/m 2,9 km/h N-NW 337 -2,1 C 1,3 C 4,3 km/h
28.11.2023 19:20 1,4 C 78 % 1009,0 hPa 0,0 l/m 2,5 km/h N-NW 337 -2,0 C 1,4 C 8,6 km/h
28.11.2023 19:15 1,4 C 79 % 1009,0 hPa 0,0 l/m 4,7 km/h N-NW 337 -1,8 C 1,4 C 6,5 km/h
28.11.2023 19:10 1,4 C 79 % 1009,0 hPa 0,0 l/m 2,9 km/h N-NW 337 -1,8 C 1,4 C 6,5 km/h
28.11.2023 19:05 1,4 C 79 % 1009,0 hPa 0,0 l/m 1,4 km/h N-NW 337 -1,8 C 1,4 C 2,2 km/h
28.11.2023 19:00 1,4 C 79 % 1009,0 hPa 0,0 l/m 4,7 km/h N-NW 337 -1,8 C 1,4 C 6,5 km/h
28.11.2023 18:55 1,4 C 79 % 1007,9 hPa 0,0 l/m 2,9 km/h N-NW 337 -1,8 C 1,4 C 6,5 km/h
28.11.2023 18:50 1,5 C 79 % 1007,9 hPa 0,0 l/m 4,0 km/h N-NW 337 -1,7 C 1,5 C 6,5 km/h
28.11.2023 18:45 1,5 C 80 % 1007,9 hPa 0,0 l/m 1,4 km/h N-NW 337 -1,6 C 1,5 C 4,3 km/h
28.11.2023 18:40 1,5 C 79 % 1007,9 hPa 0,0 l/m 4,0 km/h W 270 -1,7 C 1,5 C 6,5 km/h
28.11.2023 18:35 1,5 C 78 % 1007,9 hPa 0,0 l/m 4,0 km/h W 270 -1,9 C 1,5 C 6,5 km/h
28.11.2023 18:30 1,5 C 80 % 1007,9 hPa 0,0 l/m 2,9 km/h N 360 -1,6 C 1,5 C 8,6 km/h
28.11.2023 18:25 1,5 C 80 % 1007,9 hPa 0,0 l/m 5,8 km/h N 360 -1,6 C 1,5 C 8,6 km/h
28.11.2023 18:20 1,6 C 80 % 1007,9 hPa 0,0 l/m 6,5 km/h NW 315 -1,5 C 1,5 C 11,2 km/h
28.11.2023 18:15 1,6 C 79 % 1007,9 hPa 0,0 l/m 10,1 km/h N-NW 337 -1,6 C -1,8 C 17,6 km/h
28.11.2023 18:10 1,6 C 79 % 1007,9 hPa 0,0 l/m 5,4 km/h NW 315 -1,6 C 1,6 C 11,2 km/h
28.11.2023 18:05 1,6 C 79 % 1007,9 hPa 0,0 l/m 2,9 km/h W-NW 292 -1,6 C 1,6 C 6,5 km/h
28.11.2023 18:00 1,6 C 79 % 1007,9 hPa 0,0 l/m 6,8 km/h W-NW 292 -1,6 C 1,2 C 15,5 km/h
28.11.2023 17:55 1,7 C 79 % 1007,9 hPa 0,0 l/m 4,0 km/h NW 315 -1,5 C 1,7 C 8,6 km/h
28.11.2023 17:50 1,7 C 79 % 1007,9 hPa 0,0 l/m 6,1 km/h N-NW 337 -1,5 C 1,7 C 6,5 km/h
28.11.2023 17:45 1,8 C 80 % 1007,9 hPa 0,0 l/m 5,8 km/h N 360 -1,3 C 1,8 C 13,3 km/h
28.11.2023 17:40 1,8 C 81 % 1007,9 hPa 0,0 l/m 3,6 km/h N 360 -1,1 C 1,8 C 8,6 km/h
28.11.2023 17:35 1,8 C 81 % 1007,9 hPa 0,0 l/m 6,5 km/h N-NW 337 -1,1 C 1,7 C 11,2 km/h
28.11.2023 17:30 1,9 C 81 % 1007,9 hPa 0,0 l/m 4,3 km/h NW 315 -1,0 C 1,9 C 6,5 km/h
28.11.2023 17:25 1,9 C 82 % 1007,9 hPa 0,0 l/m 5,4 km/h W-NW 292 -0,8 C 1,9 C 8,6 km/h
28.11.2023 17:20 1,9 C 83 % 1006,9 hPa 0,0 l/m 4,7 km/h N 360 -0,7 C 1,9 C 6,5 km/h
28.11.2023 17:15 1,9 C 83 % 1006,9 hPa 0,0 l/m 2,5 km/h N 360 -0,7 C 1,9 C 4,3 km/h
28.11.2023 17:10 2,0 C 83 % 1006,9 hPa 0,0 l/m 5,0 km/h N-NW 337 -0,6 C 2,0 C 8,6 km/h
28.11.2023 17:05 2,0 C 83 % 1006,9 hPa 0,0 l/m 5,4 km/h N-NW 337 -0,6 C 2,0 C 6,5 km/h
28.11.2023 17:00 2,0 C 82 % 1006,9 hPa 0,0 l/m 4,3 km/h NW 315 -0,7 C 2,0 C 6,5 km/h
28.11.2023 16:55 2,0 C 83 % 1006,9 hPa 0,0 l/m 9,0 km/h NW 315 -0,6 C -0,4 C 15,5 km/h
28.11.2023 16:50 2,0 C 83 % 1006,9 hPa 0,0 l/m 2,2 km/h NO 45 -0,6 C 2,0 C 4,3 km/h
28.11.2023 16:45 2,1 C 83 % 1006,9 hPa 0,0 l/m 5,8 km/h O-SO 112 -0,5 C 2,1 C 8,6 km/h
28.11.2023 16:40 2,1 C 84 % 1006,9 hPa 0,0 l/m 4,0 km/h NW 315 -0,3 C 2,1 C 6,5 km/h
28.11.2023 16:35 2,1 C 84 % 1006,9 hPa 0,0 l/m 4,7 km/h NW 315 -0,3 C 2,1 C 6,5 km/h
28.11.2023 16:30 2,2 C 84 % 1006,9 hPa 0,0 l/m 5,4 km/h SW 225 -0,2 C 2,2 C 8,6 km/h
28.11.2023 16:25 2,1 C 84 % 1005,9 hPa 0,0 l/m 4,7 km/h NW 315 -0,3 C 2,1 C 6,5 km/h
28.11.2023 16:20 2,2 C 84 % 1005,9 hPa 0,0 l/m 7,6 km/h W 270 -0,2 C 1,0 C 11,2 km/h
28.11.2023 16:15 2,2 C 84 % 1005,9 hPa 0,0 l/m 2,5 km/h W 270 -0,2 C 2,2 C 4,3 km/h
28.11.2023 16:10 2,2 C 84 % 1005,9 hPa 0,0 l/m 2,9 km/h S-SW 202 -0,2 C 2,2 C 6,5 km/h
28.11.2023 16:05 2,2 C 84 % 1005,9 hPa 0,0 l/m 4,0 km/h NW 315 -0,2 C 2,2 C 6,5 km/h
28.11.2023 16:00 2,2 C 84 % 1005,9 hPa 0,0 l/m 6,1 km/h W 270 -0,2 C 2,2 C 8,6 km/h
28.11.2023 15:55 2,3 C 84 % 1005,9 hPa 0,0 l/m 3,6 km/h W 270 -0,1 C 2,3 C 6,5 km/h
28.11.2023 15:50 2,4 C 84 % 1005,9 hPa 0,0 l/m 7,2 km/h SW 225 -0,0 C 1,6 C 11,2 km/h
28.11.2023 15:45 2,4 C 84 % 1005,9 hPa 0,0 l/m 2,5 km/h N-NO 22 -0,0 C 2,4 C 6,5 km/h
28.11.2023 15:40 2,4 C 84 % 1005,9 hPa 0,0 l/m 2,9 km/h N-NO 22 -0,0 C 2,4 C 6,5 km/h
28.11.2023 15:35 2,5 C 84 % 1005,9 hPa 0,0 l/m 13,3 km/h NW 315 0,1 C -3,0 C 17,6 km/h
28.11.2023 15:30 2,5 C 85 % 1005,9 hPa 0,0 l/m 4,0 km/h N-NW 337 0,2 C 2,5 C 6,5 km/h
28.11.2023 15:25 2,5 C 85 % 1005,9 hPa 0,0 l/m 8,3 km/h W 270 0,2 C 0,7 C 15,5 km/h
28.11.2023 15:20 2,6 C 86 % 1004,8 hPa 0,0 l/m 1,8 km/h W-SW 247 0,5 C 2,6 C 4,3 km/h
28.11.2023 15:15 2,6 C 86 % 1004,8 hPa 0,0 l/m 1,1 km/h N-NW 337 0,5 C 2,6 C 6,5 km/h
28.11.2023 15:10 2,6 C 85 % 1004,8 hPa 0,0 l/m 4,0 km/h N-NW 337 0,3 C 2,6 C 6,5 km/h
28.11.2023 15:05 2,6 C 86 % 1004,8 hPa 0,0 l/m 6,8 km/h N-NW 337 0,5 C 2,2 C 11,2 km/h
28.11.2023 15:00 2,6 C 86 % 1004,8 hPa 0,0 l/m 7,6 km/h W-NW 292 0,5 C 1,5 C 13,3 km/h
28.11.2023 14:55 2,7 C 85 % 1004,8 hPa 0,0 l/m 4,0 km/h NW 315 0,4 C 2,7 C 6,5 km/h
28.11.2023 14:50 2,8 C 86 % 1004,8 hPa 0,0 l/m 3,6 km/h N-NW 337 0,7 C 2,8 C 15,5 km/h
28.11.2023 14:45 2,8 C 86 % 1004,8 hPa 0,0 l/m 5,4 km/h NW 315 0,7 C 2,8 C 15,5 km/h
28.11.2023 14:40 2,8 C 86 % 1003,8 hPa 0,0 l/m 2,2 km/h O-SO 112 0,7 C 2,8 C 4,3 km/h
28.11.2023 14:35 2,8 C 86 % 1003,8 hPa 0,0 l/m 1,8 km/h NW 315 0,7 C 2,8 C 4,3 km/h
28.11.2023 14:30 2,8 C 87 % 1003,8 hPa 0,0 l/m 5,8 km/h NW 315 0,9 C 2,8 C 6,5 km/h
28.11.2023 14:25 2,8 C 87 % 1003,8 hPa 0,0 l/m 2,9 km/h W 270 0,9 C 2,8 C 4,3 km/h
28.11.2023 14:20 2,8 C 87 % 1003,8 hPa 0,0 l/m 4,7 km/h W-NW 292 0,9 C 2,8 C 8,6 km/h
28.11.2023 14:15 2,7 C 87 % 1003,8 hPa 0,0 l/m 0,7 km/h W-SW 247 0,8 C 2,7 C 2,2 km/h
28.11.2023 14:10 2,7 C 87 % 1003,8 hPa 0,0 l/m 0,7 km/h W 270 0,8 C 2,7 C 2,2 km/h
28.11.2023 14:05 2,6 C 87 % 1003,8 hPa 0,0 l/m 0,7 km/h NW 315 0,7 C 2,6 C 2,2 km/h
28.11.2023 14:00 2,6 C 87 % 1003,8 hPa 0,0 l/m 3,6 km/h W 270 0,7 C 2,6 C 4,3 km/h
28.11.2023 13:55 2,6 C 87 % 1003,8 hPa 0,0 l/m 0,7 km/h W-NW 292 0,7 C 2,6 C 4,3 km/h
28.11.2023 13:50 2,6 C 87 % 1003,8 hPa 0,0 l/m 6,1 km/h NW 315 0,7 C 2,6 C 8,6 km/h
28.11.2023 13:45 2,6 C 87 % 1003,8 hPa 0,0 l/m 2,9 km/h NW 315 0,7 C 2,6 C 4,3 km/h
28.11.2023 13:40 2,6 C 87 % 1002,8 hPa 0,0 l/m 4,0 km/h N-NW 337 0,7 C 2,6 C 6,5 km/h
28.11.2023 13:35 2,5 C 87 % 1002,8 hPa 0,0 l/m 4,0 km/h NW 315 0,6 C 2,5 C 6,5 km/h
28.11.2023 13:30 2,6 C 87 % 1002,8 hPa 0,0 l/m 3,6 km/h N 360 0,7 C 2,6 C 8,6 km/h
28.11.2023 13:25 2,6 C 87 % 1002,8 hPa 0,0 l/m 2,9 km/h W-NW 292 0,7 C 2,6 C 6,5 km/h
28.11.2023 13:20 2,5 C 87 % 1002,8 hPa 0,0 l/m 1,1 km/h NW 315 0,6 C 2,5 C 6,5 km/h
28.11.2023 13:15 2,6 C 87 % 1002,8 hPa 0,0 l/m 5,8 km/h NW 315 0,7 C 2,6 C 8,6 km/h
28.11.2023 13:10 2,5 C 87 % 1002,8 hPa 0,0 l/m 4,3 km/h N 360 0,6 C 2,5 C 6,5 km/h
28.11.2023 13:05 2,5 C 87 % 1002,8 hPa 0,0 l/m 4,3 km/h W-NW 292 0,6 C 2,5 C 6,5 km/h
28.11.2023 13:00 2,5 C 87 % 1002,8 hPa 0,0 l/m 1,1 km/h NW 315 0,6 C 2,5 C 6,5 km/h
28.11.2023 12:55 2,5 C 87 % 1002,8 hPa 0,0 l/m 2,2 km/h NW 315 0,6 C 2,5 C 4,3 km/h
28.11.2023 12:50 2,5 C 87 % 1002,8 hPa 0,0 l/m 8,6 km/h W-NW 292 0,6 C 0,4 C 13,3 km/h
28.11.2023 12:45 2,5 C 87 % 1002,8 hPa 0,0 l/m 1,8 km/h W 270 0,6 C 2,5 C 4,3 km/h
28.11.2023 12:40 2,5 C 87 % 1002,8 hPa 0,0 l/m 2,5 km/h N 360 0,6 C 2,5 C 4,3 km/h
28.11.2023 12:35 2,5 C 87 % 1001,8 hPa 0,0 l/m 2,2 km/h NW 315 0,6 C 2,5 C 6,5 km/h
28.11.2023 12:30 2,5 C 87 % 1001,8 hPa 0,0 l/m 1,8 km/h NW 315 0,6 C 2,5 C 6,5 km/h
28.11.2023 12:25 2,5 C 87 % 1001,8 hPa 0,0 l/m 1,8 km/h W-SW 247 0,6 C 2,5 C 4,3 km/h
28.11.2023 12:20 2,5 C 87 % 1001,8 hPa 0,0 l/m 4,7 km/h N-NW 337 0,6 C 2,5 C 6,5 km/h
28.11.2023 12:15 2,6 C 87 % 1001,8 hPa 0,0 l/m 6,1 km/h W-NW 292 0,7 C 2,6 C 8,6 km/h
28.11.2023 12:10 2,6 C 87 % 1001,8 hPa 0,0 l/m 4,0 km/h W-NW 292 0,7 C 2,6 C 6,5 km/h
28.11.2023 12:05 2,7 C 87 % 1001,8 hPa 0,0 l/m 3,2 km/h W 270 0,8 C 2,7 C 6,5 km/h
28.11.2023 12:00 2,8 C 86 % 1001,8 hPa 0,0 l/m 3,6 km/h NW 315 0,7 C 2,8 C 6,5 km/h
28.11.2023 11:55 2,9 C 86 % 1001,8 hPa 0,0 l/m 2,9 km/h W-SW 247 0,8 C 2,9 C 6,5 km/h
28.11.2023 11:50 2,9 C 86 % 1001,8 hPa 0,0 l/m 1,8 km/h W-NW 292 0,8 C 2,9 C 11,2 km/h
28.11.2023 11:45 2,8 C 86 % 1000,8 hPa 0,0 l/m 5,4 km/h W-NW 292 0,7 C 2,8 C 6,5 km/h
28.11.2023 11:40 2,9 C 86 % 1000,8 hPa 0,0 l/m 6,8 km/h N-NW 337 0,8 C 2,5 C 11,2 km/h
28.11.2023 11:35 2,9 C 86 % 1000,8 hPa 0,0 l/m 8,6 km/h N-NO 22 0,8 C 0,9 C 13,3 km/h
28.11.2023 11:30 3,0 C 86 % 1000,8 hPa 0,0 l/m 3,2 km/h N-NO 22 0,9 C 3,0 C 11,2 km/h
28.11.2023 11:25 3,0 C 86 % 1000,8 hPa 0,0 l/m 5,4 km/h N-NW 337 0,9 C 3,0 C 13,3 km/h
28.11.2023 11:20 3,1 C 86 % 1000,8 hPa 0,0 l/m 4,0 km/h N 360 1,0 C 3,1 C 6,5 km/h
28.11.2023 11:15 3,1 C 85 % 1000,8 hPa 0,0 l/m 6,8 km/h N 360 0,8 C 2,7 C 11,2 km/h
28.11.2023 11:10 3,2 C 86 % 1000,7 hPa 0,0 l/m 7,9 km/h NO 45 1,1 C 1,8 C 13,3 km/h
28.11.2023 11:05 3,2 C 87 % 1000,7 hPa 0,0 l/m 6,5 km/h N-NW 337 1,2 C 3,1 C 8,6 km/h
28.11.2023 11:00 3,2 C 87 % 1000,7 hPa 0,0 l/m 2,9 km/h W-NW 292 1,2 C 3,2 C 6,5 km/h
28.11.2023 10:55 3,2 C 87 % 999,7 hPa 0,0 l/m 2,2 km/h NW 315 1,2 C 3,2 C 4,3 km/h
28.11.2023 10:50 3,1 C 87 % 999,7 hPa 0,0 l/m 9,4 km/h N 360 1,2 C 0,4 C 17,6 km/h
28.11.2023 10:45 3,1 C 87 % 999,7 hPa 0,0 l/m 9,4 km/h W-SW 247 1,2 C 0,4 C 17,6 km/h
28.11.2023 10:40 3,1 C 87 % 999,7 hPa 0,0 l/m 2,9 km/h N-NO 22 1,2 C 3,1 C 4,3 km/h
28.11.2023 10:35 3,0 C 88 % 999,7 hPa 0,0 l/m 7,9 km/h N 360 1,2 C 1,6 C 13,3 km/h
28.11.2023 10:30 3,0 C 88 % 999,7 hPa 0,0 l/m 3,6 km/h NO 45 1,2 C 3,0 C 6,5 km/h
28.11.2023 10:25 3,0 C 88 % 999,7 hPa 0,0 l/m 9,7 km/h NW 315 1,2 C 0,1 C 15,5 km/h
28.11.2023 10:20 3,0 C 88 % 999,7 hPa 0,0 l/m 5,8 km/h NW 315 1,2 C 3,0 C 11,2 km/h
28.11.2023 10:15 3,0 C 87 % 998,7 hPa 0,0 l/m 5,4 km/h N 360 1,1 C 3,0 C 11,2 km/h
28.11.2023 10:10 2,9 C 87 % 998,7 hPa 0,0 l/m 6,5 km/h NW 315 1,0 C 2,8 C 15,5 km/h
28.11.2023 10:05 2,8 C 87 % 998,7 hPa 0,0 l/m 8,6 km/h N 360 0,9 C 0,8 C 13,3 km/h
28.11.2023 10:00 2,8 C 88 % 998,7 hPa 0,0 l/m 5,4 km/h NW 315 1,0 C 2,8 C 13,3 km/h
28.11.2023 09:55 2,8 C 88 % 998,7 hPa 0,0 l/m 7,2 km/h N-NW 337 1,0 C 2,0 C 11,2 km/h
28.11.2023 09:50 2,8 C 88 % 998,7 hPa 0,0 l/m 10,4 km/h NW 315 1,0 C -0,7 C 15,5 km/h
28.11.2023 09:45 2,8 C 88 % 998,7 hPa 0,0 l/m 4,3 km/h W-NW 292 1,0 C 2,8 C 11,2 km/h
28.11.2023 09:40 2,8 C 88 % 998,7 hPa 0,0 l/m 12,2 km/h SW 225 1,0 C -1,9 C 17,6 km/h
28.11.2023 09:35 2,8 C 88 % 998,7 hPa 0,0 l/m 4,0 km/h W 270 1,0 C 2,8 C 6,5 km/h
28.11.2023 09:30 2,8 C 88 % 998,7 hPa 0,0 l/m 4,3 km/h N-NO 22 1,0 C 2,8 C 13,3 km/h
28.11.2023 09:25 2,8 C 88 % 997,7 hPa 0,0 l/m 10,1 km/h W 270 1,0 C -0,4 C 15,5 km/h
28.11.2023 09:20 2,8 C 88 % 997,7 hPa 0,0 l/m 7,9 km/h N-NW 337 1,0 C 1,4 C 13,3 km/h
28.11.2023 09:15 2,8 C 88 % 997,7 hPa 0,0 l/m 4,7 km/h NW 315 1,0 C 2,8 C 8,6 km/h
28.11.2023 09:10 2,8 C 88 % 997,7 hPa 0,0 l/m 6,1 km/h W-NW 292 1,0 C 2,8 C 8,6 km/h
28.11.2023 09:05 2,8 C 88 % 997,7 hPa 0,0 l/m 11,2 km/h W-SW 247 1,0 C -1,2 C 19,8 km/h
28.11.2023 09:00 2,8 C 88 % 997,7 hPa 0,3 l/m 7,6 km/h NW 315 1,0 C 1,7 C 11,2 km/h
28.11.2023 08:55 2,8 C 88 % 996,7 hPa 0,0 l/m 6,1 km/h NW 315 1,0 C 2,8 C 15,5 km/h
28.11.2023 08:50 2,8 C 88 % 996,7 hPa 0,0 l/m 9,4 km/h NW 315 1,0 C 0,1 C 17,6 km/h
28.11.2023 08:45 2,8 C 88 % 996,7 hPa 0,0 l/m 9,4 km/h NW 315 1,0 C 0,1 C 11,2 km/h
28.11.2023 08:40 2,8 C 88 % 996,7 hPa 0,0 l/m 7,2 km/h N 360 1,0 C 2,0 C 8,6 km/h
28.11.2023 08:35 2,8 C 88 % 996,7 hPa 0,0 l/m 5,0 km/h W-NW 292 1,0 C 2,8 C 6,5 km/h
28.11.2023 08:30 2,8 C 88 % 996,7 hPa 0,0 l/m 10,1 km/h N-NO 22 1,0 C -0,4 C 15,5 km/h
28.11.2023 08:25 2,8 C 88 % 996,7 hPa 0,0 l/m 6,8 km/h W-SW 247 1,0 C 2,4 C 13,3 km/h
28.11.2023 08:20 2,8 C 88 % 995,7 hPa 0,0 l/m 5,4 km/h W-SW 247 1,0 C 2,8 C 11,2 km/h
28.11.2023 08:15 2,8 C 88 % 995,7 hPa 0,0 l/m 6,5 km/h W-NW 292 1,0 C 2,7 C 11,2 km/h
28.11.2023 08:10 2,7 C 88 % 995,7 hPa 0,0 l/m 4,7 km/h NW 315 0,9 C 2,7 C 8,6 km/h
28.11.2023 08:05 2,7 C 88 % 995,7 hPa 0,0 l/m 4,0 km/h W-SW 247 0,9 C 2,7 C 8,6 km/h
28.11.2023 08:00 2,7 C 88 % 995,7 hPa 0,0 l/m 5,4 km/h NW 315 0,9 C 2,7 C 13,3 km/h
28.11.2023 07:55 2,8 C 88 % 995,7 hPa 0,0 l/m 5,8 km/h NO 45 1,0 C 2,8 C 11,2 km/h
28.11.2023 07:50 2,8 C 88 % 995,7 hPa 0,0 l/m 8,3 km/h NW 315 1,0 C 1,0 C 17,6 km/h
28.11.2023 07:45 2,8 C 88 % 995,7 hPa 0,0 l/m 8,6 km/h W 270 1,0 C 0,8 C 11,2 km/h
28.11.2023 07:40 2,9 C 88 % 994,7 hPa 0,0 l/m 5,4 km/h N-NW 337 1,1 C 2,9 C 11,2 km/h
28.11.2023 07:35 2,9 C 88 % 994,7 hPa 0,0 l/m 2,9 km/h N 360 1,1 C 2,9 C 4,3 km/h
28.11.2023 07:30 3,0 C 89 % 994,7 hPa 0,3 l/m 7,9 km/h N-NW 337 1,4 C 1,6 C 13,3 km/h
28.11.2023 07:25 3,0 C 89 % 994,7 hPa 0,0 l/m 3,2 km/h N-NO 22 1,4 C 3,0 C 6,5 km/h
28.11.2023 07:20 3,1 C 88 % 994,7 hPa 0,0 l/m 5,4 km/h W-NW 292 1,3 C 3,1 C 11,2 km/h
28.11.2023 07:15 3,1 C 88 % 994,7 hPa 0,0 l/m 6,1 km/h W 270 1,3 C 3,1 C 8,6 km/h
28.11.2023 07:10 3,2 C 88 % 994,7 hPa 0,0 l/m 4,7 km/h W 270 1,4 C 3,2 C 6,5 km/h
28.11.2023 07:05 3,4 C 87 % 993,6 hPa 0,3 l/m 4,7 km/h N-NW 337 1,4 C 3,4 C 11,2 km/h
28.11.2023 07:00 3,6 C 87 % 993,6 hPa 0,0 l/m 9,4 km/h NW 315 1,6 C 1,0 C 13,3 km/h
28.11.2023 06:55 3,9 C 87 % 993,6 hPa 0,0 l/m 6,1 km/h N-NW 337 1,9 C 3,9 C 13,3 km/h
28.11.2023 06:50 4,2 C 87 % 993,6 hPa 0,0 l/m 9,7 km/h N 360 2,2 C 1,4 C 17,6 km/h
28.11.2023 06:45 4,3 C 87 % 993,6 hPa 0,0 l/m 13,7 km/h N 360 2,3 C -1,1 C 19,8 km/h
28.11.2023 06:40 4,4 C 88 % 993,6 hPa 0,0 l/m 7,2 km/h N 360 2,6 C 3,7 C 11,2 km/h
28.11.2023 06:35 4,5 C 88 % 993,6 hPa 0,3 l/m 6,5 km/h NW 315 2,7 C 4,4 C 11,2 km/h
28.11.2023 06:30 4,6 C 87 % 993,6 hPa 0,0 l/m 5,0 km/h NW 315 2,6 C 4,6 C 8,6 km/h
28.11.2023 06:25 4,8 C 88 % 992,6 hPa 0,0 l/m 11,2 km/h W-SW 247 3,0 C 1,0 C 19,8 km/h
28.11.2023 06:20 4,9 C 88 % 992,6 hPa 0,0 l/m 9,0 km/h NW 315 3,1 C 2,7 C 15,5 km/h
28.11.2023 06:15 5,0 C 89 % 992,5 hPa 0,0 l/m 2,9 km/h N-NW 337 3,3 C 5,0 C 4,3 km/h
28.11.2023 06:10 5,2 C 89 % 992,5 hPa 0,0 l/m 1,8 km/h O 90 3,5 C 5,2 C 4,3 km/h
28.11.2023 06:05 5,2 C 88 % 992,5 hPa 0,0 l/m 2,9 km/h N-NW 337 3,4 C 5,2 C 6,5 km/h
28.11.2023 06:00 5,4 C 89 % 992,5 hPa 0,0 l/m 7,6 km/h W-NW 292 3,7 C 4,4 C 13,3 km/h
28.11.2023 05:55 5,5 C 90 % 992,5 hPa 0,0 l/m 5,4 km/h SW 225 4,0 C 5,5 C 8,6 km/h
28.11.2023 05:50 5,5 C 90 % 991,5 hPa 0,0 l/m 12,2 km/h N-NW 337 4,0 C 1,2 C 17,6 km/h
28.11.2023 05:45 5,5 C 90 % 991,5 hPa 0,0 l/m 5,4 km/h W 270 4,0 C 5,5 C 11,2 km/h
28.11.2023 05:40 5,5 C 90 % 991,5 hPa 0,0 l/m 5,0 km/h N-NW 337 4,0 C 5,5 C 8,6 km/h
28.11.2023 05:35 5,5 C 90 % 991,5 hPa 0,0 l/m 6,8 km/h W-NW 292 4,0 C 5,2 C 11,2 km/h
28.11.2023 05:30 5,5 C 90 % 991,5 hPa 0,0 l/m 2,9 km/h W 270 4,0 C 5,5 C 4,3 km/h
28.11.2023 05:25 5,5 C 90 % 991,5 hPa 0,0 l/m 4,0 km/h W-NW 292 4,0 C 5,5 C 6,5 km/h
28.11.2023 05:20 5,5 C 90 % 991,5 hPa 0,0 l/m 3,2 km/h SW 225 4,0 C 5,5 C 6,5 km/h
28.11.2023 05:15 5,5 C 90 % 991,5 hPa 0,0 l/m 6,8 km/h W 270 4,0 C 5,2 C 11,2 km/h
28.11.2023 05:10 5,4 C 90 % 991,5 hPa 0,0 l/m 0,4 km/h NW 315 3,9 C 5,4 C 2,2 km/h
28.11.2023 05:05 5,4 C 90 % 991,5 hPa 0,0 l/m 7,6 km/h S-SW 202 3,9 C 4,4 C 11,2 km/h
28.11.2023 05:00 5,4 C 90 % 991,5 hPa 0,0 l/m 3,6 km/h W-NW 292 3,9 C 5,4 C 6,5 km/h
28.11.2023 04:55 5,4 C 90 % 991,5 hPa 0,3 l/m 5,4 km/h SW 225 3,9 C 5,4 C 8,6 km/h
28.11.2023 04:50 5,4 C 90 % 991,5 hPa 0,0 l/m 4,0 km/h W-SW 247 3,9 C 5,4 C 8,6 km/h
28.11.2023 04:45 5,4 C 90 % 991,5 hPa 0,0 l/m 5,4 km/h W-NW 292 3,9 C 5,4 C 8,6 km/h
28.11.2023 04:40 5,4 C 90 % 991,5 hPa 0,3 l/m 7,9 km/h SW 225 3,9 C 4,1 C 13,3 km/h
28.11.2023 04:35 5,4 C 90 % 991,5 hPa 0,0 l/m 4,0 km/h W-NW 292 3,9 C 5,4 C 8,6 km/h
28.11.2023 04:30 5,3 C 90 % 991,5 hPa 0,3 l/m 7,2 km/h S-SW 202 3,8 C 4,6 C 11,2 km/h
28.11.2023 04:25 5,3 C 90 % 991,5 hPa 0,3 l/m 0,7 km/h SW 225 3,8 C 5,3 C 4,3 km/h
28.11.2023 04:20 5,3 C 90 % 991,5 hPa 0,0 l/m 2,2 km/h W-SW 247 3,8 C 5,3 C 4,3 km/h
28.11.2023 04:15 5,3 C 89 % 991,5 hPa 0,3 l/m 2,2 km/h SW 225 3,6 C 5,3 C 4,3 km/h
28.11.2023 04:10 5,3 C 89 % 991,5 hPa 0,0 l/m 5,0 km/h W-SW 247 3,6 C 5,3 C 8,6 km/h
28.11.2023 04:05 5,3 C 89 % 991,5 hPa 0,3 l/m 3,6 km/h SW 225 3,6 C 5,3 C 4,3 km/h
28.11.2023 04:00 5,3 C 89 % 991,5 hPa 0,3 l/m 1,4 km/h W-SW 247 3,6 C 5,3 C 4,3 km/h
28.11.2023 03:55 5,3 C 89 % 991,5 hPa 0,0 l/m 0,7 km/h W-SW 247 3,6 C 5,3 C 4,3 km/h
28.11.2023 03:50 5,3 C 89 % 991,5 hPa 0,5 l/m 5,4 km/h SW 225 3,6 C 5,3 C 6,5 km/h
28.11.2023 03:45 5,3 C 89 % 991,5 hPa 0,3 l/m 1,1 km/h W-SW 247 3,6 C 5,3 C 2,2 km/h
28.11.2023 03:40 5,3 C 89 % 991,5 hPa 0,3 l/m 6,5 km/h W-SW 247 3,6 C 5,2 C 8,6 km/h
28.11.2023 03:35 5,3 C 89 % 991,5 hPa 0,3 l/m 4,0 km/h W-SW 247 3,6 C 5,3 C 4,3 km/h
28.11.2023 03:30 5,3 C 89 % 991,5 hPa 0,3 l/m 3,6 km/h S-SW 202 3,6 C 5,3 C 8,6 km/h
28.11.2023 03:25 5,3 C 89 % 991,5 hPa 0,3 l/m 8,6 km/h S-SW 202 3,6 C 3,4 C 13,3 km/h
28.11.2023 03:20 5,3 C 89 % 991,5 hPa 0,3 l/m 5,8 km/h SW 225 3,6 C 5,3 C 15,5 km/h
28.11.2023 03:15 5,3 C 89 % 991,5 hPa 0,3 l/m 8,6 km/h W-SW 247 3,6 C 3,4 C 11,2 km/h
28.11.2023 03:10 5,3 C 89 % 991,5 hPa 0,3 l/m 2,9 km/h W 270 3,6 C 5,3 C 4,3 km/h
28.11.2023 03:05 5,3 C 89 % 991,5 hPa 0,3 l/m 2,2 km/h S 180 3,6 C 5,3 C 6,5 km/h
28.11.2023 03:00 5,3 C 89 % 991,5 hPa 0,3 l/m 5,4 km/h S 180 3,6 C 5,3 C 6,5 km/h
28.11.2023 02:55 5,3 C 89 % 991,5 hPa 0,3 l/m 6,8 km/h S-SW 202 3,6 C 5,0 C 15,5 km/h
28.11.2023 02:50 5,3 C 89 % 991,5 hPa 0,3 l/m 3,6 km/h N-NW 337 3,6 C 5,3 C 8,6 km/h
28.11.2023 02:45 5,3 C 89 % 991,5 hPa 0,0 l/m 2,9 km/h SW 225 3,6 C 5,3 C 4,3 km/h
28.11.2023 02:40 5,3 C 89 % 991,5 hPa 0,3 l/m 1,1 km/h W-SW 247 3,6 C 5,3 C 4,3 km/h
28.11.2023 02:35 5,3 C 89 % 991,5 hPa 0,3 l/m 6,1 km/h W 270 3,6 C 5,3 C 13,3 km/h
28.11.2023 02:30 5,2 C 89 % 991,5 hPa 0,0 l/m 8,3 km/h W-NW 292 3,5 C 3,6 C 11,2 km/h
28.11.2023 02:25 5,2 C 89 % 991,5 hPa 0,0 l/m 2,5 km/h W 270 3,5 C 5,2 C 6,5 km/h
28.11.2023 02:20 5,1 C 89 % 991,5 hPa 0,0 l/m 2,5 km/h W 270 3,4 C 5,1 C 4,3 km/h
28.11.2023 02:15 5,1 C 89 % 991,5 hPa 0,0 l/m 1,4 km/h W-SW 247 3,4 C 5,1 C 2,2 km/h
28.11.2023 02:10 5,0 C 89 % 991,5 hPa 0,0 l/m 0,7 km/h SW 225 3,3 C 5,0 C 2,2 km/h
28.11.2023 02:05 5,0 C 89 % 991,5 hPa 0,0 l/m 3,2 km/h SW 225 3,3 C 5,0 C 4,3 km/h
28.11.2023 02:00 5,0 C 89 % 991,5 hPa 0,0 l/m 0,7 km/h SW 225 3,3 C 5,0 C 2,2 km/h
28.11.2023 01:55 4,9 C 89 % 991,5 hPa 0,0 l/m 2,9 km/h SW 225 3,2 C 4,9 C 4,3 km/h
28.11.2023 01:50 4,9 C 89 % 991,5 hPa 0,0 l/m 4,3 km/h S-SW 202 3,2 C 4,9 C 4,3 km/h
28.11.2023 01:45 4,9 C 89 % 991,5 hPa 0,0 l/m 2,2 km/h S-SW 202 3,2 C 4,9 C 4,3 km/h
28.11.2023 01:40 4,8 C 89 % 991,5 hPa 0,0 l/m 1,8 km/h SW 225 3,1 C 4,8 C 4,3 km/h
28.11.2023 01:35 4,8 C 89 % 992,6 hPa 0,0 l/m 0,7 km/h S-SO 157 3,1 C 4,8 C 4,3 km/h
28.11.2023 01:30 4,8 C 89 % 992,6 hPa 0,0 l/m 1,1 km/h W-SW 247 3,1 C 4,8 C 4,3 km/h
28.11.2023 01:25 4,8 C 89 % 992,6 hPa 0,0 l/m 4,0 km/h W-SW 247 3,1 C 4,8 C 8,6 km/h
28.11.2023 01:20 4,8 C 89 % 992,6 hPa 0,0 l/m 1,4 km/h S-SW 202 3,1 C 4,8 C 4,3 km/h
28.11.2023 01:15 4,8 C 89 % 992,6 hPa 0,0 l/m 5,0 km/h W 270 3,1 C 4,8 C 8,6 km/h
28.11.2023 01:10 4,8 C 89 % 992,6 hPa 0,0 l/m 2,2 km/h W-SW 247 3,1 C 4,8 C 4,3 km/h
28.11.2023 01:05 4,8 C 89 % 992,6 hPa 0,0 l/m 2,2 km/h W-NW 292 3,1 C 4,8 C 4,3 km/h
28.11.2023 01:00 4,8 C 89 % 992,6 hPa 0,0 l/m 7,2 km/h SW 225 3,1 C 4,1 C 8,6 km/h
28.11.2023 00:55 4,8 C 89 % 992,6 hPa 0,0 l/m 8,6 km/h S 180 3,1 C 2,9 C 17,6 km/h
28.11.2023 00:50 4,7 C 89 % 992,6 hPa 0,0 l/m 2,5 km/h W 270 3,0 C 4,7 C 4,3 km/h
28.11.2023 00:45 4,7 C 89 % 992,6 hPa 0,0 l/m 2,5 km/h W-SW 247 3,0 C 4,7 C 6,5 km/h
28.11.2023 00:40 4,7 C 89 % 992,6 hPa 0,0 l/m 6,5 km/h W-NW 292 3,0 C 4,6 C 15,5 km/h
28.11.2023 00:35 4,7 C 89 % 992,6 hPa 0,0 l/m 8,3 km/h W-SW 247 3,0 C 3,0 C 13,3 km/h
28.11.2023 00:30 4,7 C 89 % 992,6 hPa 0,3 l/m 5,0 km/h SW 225 3,0 C 4,7 C 6,5 km/h
28.11.2023 00:25 4,7 C 89 % 992,6 hPa 0,0 l/m 1,8 km/h W-SW 247 3,0 C 4,7 C 4,3 km/h
28.11.2023 00:20 4,7 C 89 % 992,6 hPa 0,0 l/m 5,4 km/h SW 225 3,0 C 4,7 C 8,6 km/h
28.11.2023 00:15 4,6 C 89 % 992,6 hPa 0,3 l/m 4,7 km/h SW 225 2,9 C 4,6 C 6,5 km/h
28.11.2023 00:10 4,6 C 89 % 992,6 hPa 0,0 l/m 5,8 km/h SO 135 2,9 C 4,6 C 8,6 km/h
28.11.2023 00:05 4,6 C 89 % 993,6 hPa 0,0 l/m 4,0 km/h SW 225 2,9 C 4,6 C 8,6 km/h
28.11.2023 00:00 4,6 C 89 % 993,6 hPa 0,3 l/m 4,0 km/h W-SW 247 2,9 C 4,6 C 6,5 km/h
27.11.2023 23:55 4,5 C 89 % 993,6 hPa 0,0 l/m 6,1 km/h W-SW 247 2,8 C 4,5 C 13,3 km/h
27.11.2023 23:50 4,5 C 89 % 993,6 hPa 0,0 l/m 2,5 km/h W-NW 292 2,8 C 4,5 C 13,3 km/h
27.11.2023 23:45 4,4 C 89 % 993,6 hPa 0,0 l/m 4,0 km/h W-SW 247 2,7 C 4,4 C 13,3 km/h
27.11.2023 23:40 4,4 C 89 % 993,6 hPa 0,0 l/m 1,8 km/h SW 225 2,7 C 4,4 C 6,5 km/h
27.11.2023 23:35 4,4 C 89 % 993,6 hPa 0,0 l/m 1,4 km/h W-NW 292 2,7 C 4,4 C 6,5 km/h
27.11.2023 23:30 4,4 C 89 % 993,6 hPa 0,0 l/m 3,6 km/h W 270 2,7 C 4,4 C 4,3 km/h
27.11.2023 23:25 4,4 C 89 % 993,6 hPa 0,0 l/m 7,2 km/h SW 225 2,7 C 3,7 C 13,3 km/h
27.11.2023 23:20 4,3 C 89 % 993,6 hPa 0,0 l/m 2,2 km/h SW 225 2,7 C 4,3 C 6,5 km/h
27.11.2023 23:15 4,3 C 89 % 993,6 hPa 0,0 l/m 2,9 km/h W 270 2,7 C 4,3 C 6,5 km/h
27.11.2023 23:10 4,3 C 89 % 993,6 hPa 0,0 l/m 4,7 km/h NW 315 2,7 C 4,3 C 6,5 km/h
27.11.2023 23:05 4,3 C 89 % 993,6 hPa 0,0 l/m 4,0 km/h SW 225 2,7 C 4,3 C 6,5 km/h
27.11.2023 23:00 4,2 C 89 % 993,6 hPa 0,0 l/m 4,7 km/h W 270 2,6 C 4,2 C 8,6 km/h
27.11.2023 22:55 4,2 C 89 % 993,6 hPa 0,0 l/m 4,3 km/h SW 225 2,6 C 4,2 C 8,6 km/h
27.11.2023 22:50 4,2 C 89 % 993,6 hPa 0,0 l/m 2,9 km/h W-SW 247 2,6 C 4,2 C 4,3 km/h
27.11.2023 22:45 4,2 C 89 % 993,6 hPa 0,0 l/m 2,9 km/h W 270 2,6 C 4,2 C 8,6 km/h
27.11.2023 22:40 4,2 C 89 % 993,6 hPa 0,0 l/m 2,9 km/h W-SW 247 2,6 C 4,2 C 4,3 km/h
27.11.2023 22:35 4,2 C 89 % 993,6 hPa 0,3 l/m 4,3 km/h SW 225 2,6 C 4,2 C 6,5 km/h
27.11.2023 22:30 4,1 C 89 % 993,6 hPa 0,0 l/m 4,3 km/h W 270 2,5 C 4,1 C 8,6 km/h
27.11.2023 22:25 4,1 C 89 % 993,6 hPa 0,5 l/m 7,6 km/h W-NW 292 2,5 C 3,0 C 11,2 km/h
27.11.2023 22:20 4,1 C 89 % 993,6 hPa 0,0 l/m 1,8 km/h SW 225 2,5 C 4,1 C 2,2 km/h
27.11.2023 22:15 4,1 C 89 % 993,6 hPa 0,3 l/m 1,8 km/h W 270 2,5 C 4,1 C 6,5 km/h
27.11.2023 22:10 4,1 C 89 % 993,6 hPa 0,3 l/m 1,1 km/h W-SW 247 2,5 C 4,1 C 4,3 km/h
27.11.2023 22:05 4,1 C 89 % 993,6 hPa 0,3 l/m 1,4 km/h NW 315 2,5 C 4,1 C 2,2 km/h
27.11.2023 22:00 4,1 C 89 % 993,6 hPa 0,3 l/m 5,0 km/h W-SW 247 2,5 C 4,1 C 6,5 km/h
27.11.2023 21:55 4,0 C 89 % 993,6 hPa 0,0 l/m 2,9 km/h S-SW 202 2,4 C 4,0 C 4,3 km/h
27.11.2023 21:50 4,0 C 89 % 993,6 hPa 0,3 l/m 5,8 km/h S-SW 202 2,4 C 4,0 C 6,5 km/h
27.11.2023 21:45 4,0 C 89 % 993,6 hPa 0,0 l/m 7,9 km/h SW 225 2,4 C 2,6 C 11,2 km/h
27.11.2023 21:40 4,0 C 89 % 994,6 hPa 0,0 l/m 10,1 km/h W-SW 247 2,4 C 0,9 C 15,5 km/h
27.11.2023 21:35 4,0 C 89 % 994,6 hPa 0,3 l/m 2,9 km/h S-SO 157 2,4 C 4,0 C 8,6 km/h
27.11.2023 21:30 3,9 C 89 % 994,6 hPa 0,0 l/m 2,9 km/h W-NW 292 2,3 C 3,9 C 6,5 km/h
27.11.2023 21:25 3,9 C 89 % 994,6 hPa 0,3 l/m 4,3 km/h SW 225 2,3 C 3,9 C 6,5 km/h
27.11.2023 21:20 3,9 C 89 % 994,6 hPa 0,3 l/m 3,6 km/h W-SW 247 2,3 C 3,9 C 6,5 km/h
27.11.2023 21:15 3,9 C 89 % 994,6 hPa 0,0 l/m 0,7 km/h SW 225 2,3 C 3,9 C 2,2 km/h
27.11.2023 21:10 3,9 C 89 % 994,6 hPa 0,3 l/m 3,2 km/h W-SW 247 2,3 C 3,9 C 8,6 km/h
27.11.2023 21:05 3,8 C 89 % 994,6 hPa 0,3 l/m 4,0 km/h W-SW 247 2,2 C 3,8 C 6,5 km/h
27.11.2023 21:00 3,8 C 89 % 994,6 hPa 0,0 l/m 4,0 km/h S-SW 202 2,2 C 3,8 C 8,6 km/h
_ Min-Zeit 20:30 19:25 05:50 - 20:25 - - 19:25 15:35 20:30
Minimum _ 1,2 C 78 % 991,5 hPa - 0,0 km/h - - -2,1 C -3,0 C 2,2 km/h
_ Max-Zeit 05:55 05:55 20:30 03:50 06:45 - - 05:55 05:55 09:05
Maximum _ 5,5 C 90 % 1009,0 hPa 0,5 l/m 13,7 km/h
N
- - 4,0 C 5,5 C 19,8 km/h
W-SW
Durchschnitt _ 3,4 C 87 % 998,3 hPa #11,1 l/m 4,6 km/h N-NW - 1,5 C 3,1 C 8,4 km/h